This is the latest recevied weather packets stored in our database for station/object IW9CSJ-13. If no packets are shown the sender has not sent any weather packets the latest 1 day(s).
| Time | Temp. | Humidity | Pressure | Rain* | Wind** | Luminosity | Snow |
|---|---|---|---|---|---|---|---|
| 1778099126 | 15° C | 88% | 1013.4 hPa | 0 mm | - | - | - |
| 1778096421 | 14.44° C | 88% | 1013.7 hPa | 0 mm | - | - | - |
| 1778093119 | 15° C | 88% | 1013.5 hPa | 0 mm | - | - | - |
| 1778092524 | 15° C | 88% | 1013.3 hPa | 0 mm | - | - | - |
| 1778090719 | 15° C | 87% | 1013.2 hPa | 0 mm | - | - | - |
| 1778088324 | 15.56° C | 87% | 1012.8 hPa | 0 mm | - | - | - |
| 1778087122 | 15.56° C | 87% | 1013.1 hPa | 0 mm | - | - | - |
| 1778086819 | 16.11° C | 86% | 1013 hPa | 0 mm | - | - | - |
| 1778085320 | 16.67° C | 86% | 1013.1 hPa | 0 mm | - | - | - |
| 1778084718 | 16.67° C | 86% | 1013.1 hPa | 0 mm | - | - | - |
| 1778083819 | 16.11° C | 87% | 1013.3 hPa | 0 mm | - | - | - |
| 1778082620 | 16.11° C | 87% | 1013.4 hPa | 0 mm | - | - | - |
| 1778080523 | 16.11° C | 86% | 1013.4 hPa | 0 mm | - | - | - |
| 1778080221 | 16.11° C | 86% | 1013.5 hPa | 0 mm | - | - | - |
| 1778079921 | 16.11° C | 87% | 1013.5 hPa | 0 mm | - | - | - |
| 1778079319 | 16.11° C | 87% | 1013.6 hPa | 0 mm | - | - | - |
| 1778077521 | 16.67° C | 85% | 1012.9 hPa | 0 mm | - | - | - |
| 1778076920 | 16.67° C | 85% | 1013 hPa | 0 mm | - | - | - |
| 1778076619 | 16.67° C | 85% | 1013 hPa | 0 mm | - | - | - |
| 1778075424 | 16.67° C | 85% | 1013 hPa | 0 mm | - | - | - |
| 1778073920 | 16.67° C | 85% | 1013.2 hPa | 0 mm | - | - | - |
| 1778073020 | 16.67° C | 85% | 1013.6 hPa | 0 mm | - | - | - |
| 1778069421 | 17.22° C | 85% | 1013.8 hPa | 0 mm | - | - | - |
| 1778068221 | 16.67° C | 87% | 1013.9 hPa | 0 mm | - | - | - |
| 1778067919 | 16.67° C | 87% | 1014 hPa | 0 mm | - | - | - |
* Rain latest hour (hover to see other rain measurements)
** Current wind speed in m/s (hover to see current wind gust speed)